Time;durP1;ratioP1;P1;durP2;ratioP2;P2;SDS_P1;SDS_P2;PMS_P1;PMS_P2;Temp;Humidity;BMP_temperature;BMP_pressure;BME280_temperature;BME280_humidity;BME280_pressure;Samples;Min_cycle;Max_cycle;Signal;HPM_P1;HPM_P2
2022/06/14 00:02:59;;;;;;;6.65;2.95;;;;;;;21.62;42.01;102346.28;5072399;28;20498;-69
2022/06/14 00:05:24;;;;;;;6.00;2.40;;;;;;;21.62;41.90;102346.28;5072934;28;20029;-69
2022/06/14 00:07:50;;;;;;;7.00;2.83;;;;;;;21.61;42.06;102339.28;5072970;28;20293;-68
2022/06/14 00:10:15;;;;;;;7.03;3.00;;;;;;;21.61;42.12;102343.75;5071965;28;20273;-68
2022/06/14 00:12:40;;;;;;;7.57;3.60;;;;;;;21.59;42.11;102343.84;5072846;28;20024;-68
2022/06/14 00:15:06;;;;;;;8.17;2.80;;;;;;;21.60;41.87;102337.56;5072831;28;20545;-68
2022/06/14 00:17:34;;;;;;;10.82;3.33;;;;;;;21.58;42.14;102341.31;5071682;28;20265;-68
2022/06/14 00:19:59;;;;;;;6.50;2.53;;;;;;;21.58;42.13;102336.00;5072882;28;20032;-68
2022/06/14 00:22:24;;;;;;;6.93;3.37;;;;;;;21.56;42.01;102336.97;5072460;28;20101;-68
2022/06/14 00:24:52;;;;;;;6.80;2.72;;;;;;;21.56;42.23;102338.78;5071974;28;20284;-69
2022/06/14 00:27:23;;;;;;;6.90;2.85;;;;;;;21.56;42.09;102341.44;5072089;28;20053;-68
2022/06/14 00:29:48;;;;;;;8.70;3.00;;;;;;;21.55;41.97;102337.06;5072644;28;20479;-68
2022/06/14 00:32:14;;;;;;;6.57;3.13;;;;;;;21.53;41.96;102337.19;5071757;28;20032;-68
2022/06/14 00:34:39;;;;;;;6.53;2.60;;;;;;;21.53;42.16;102342.47;5072756;28;20364;-69
2022/06/14 00:37:04;;;;;;;8.15;2.70;;;;;;;21.53;42.09;102331.88;5072577;28;20024;-68
2022/06/14 00:39:30;;;;;;;6.80;2.88;;;;;;;21.53;42.16;102331.03;5071477;28;20020;-68
2022/06/14 00:41:56;;;;;;;6.63;2.67;;;;;;;21.51;42.12;102325.00;5072541;28;20535;-68
2022/06/14 00:44:28;;;;;;;7.47;3.15;;;;;;;21.52;42.16;102321.38;5072221;28;20117;-68
2022/06/14 00:47:09;;;;;;;7.78;3.05;;;;;;;21.50;42.34;102316.19;5071858;28;20025;-68
2022/06/14 00:49:48;;;;;;;6.05;2.92;;;;;;;21.49;42.12;102316.28;5072710;28;20391;-67
2022/06/14 00:52:23;;;;;;;6.65;2.97;;;;;;;21.49;42.25;102322.47;5071465;28;20020;-67
2022/06/14 00:54:56;;;;;;;6.45;2.88;;;;;;;21.47;42.07;102312.88;5072579;28;20016;-67
2022/06/14 00:57:28;;;;;;;9.13;2.87;;;;;;;21.47;42.14;102320.84;5072366;28;20029;-67
2022/06/14 01:00:01;;;;;;;5.57;2.60;;;;;;;21.46;42.15;102314.69;5071902;28;20032;-67
2022/06/14 01:02:30;;;;;;;6.88;2.90;;;;;;;21.45;42.12;102320.94;5072113;28;20495;-67
2022/06/14 01:04:59;;;;;;;7.13;2.90;;;;;;;21.45;42.17;102320.09;5072309;28;20070;-67
2022/06/14 01:07:32;;;;;;;6.63;3.00;;;;;;;21.43;42.16;102312.25;5074312;28;20017;-67
2022/06/14 01:10:04;;;;;;;7.88;3.17;;;;;;;21.43;42.46;102314.91;5076411;28;20024;-67
2022/06/14 01:12:37;;;;;;;7.13;3.33;;;;;;;21.43;42.11;102317.56;5076029;28;20084;-68
2022/06/14 01:15:20;;;;;;;7.47;3.10;;;;;;;21.42;42.22;102315.88;5075550;28;20024;-67
2022/06/14 01:17:49;;;;;;;6.95;2.80;;;;;;;21.41;42.43;102314.16;5076123;28;20654;-67
2022/06/14 01:20:19;;;;;;;6.50;2.85;;;;;;;21.40;42.24;102320.44;5075081;28;20111;-67
2022/06/14 01:22:46;;;;;;;8.68;3.13;;;;;;;21.40;42.09;102322.25;5076219;28;20027;-68
2022/06/14 01:25:11;;;;;;;6.82;3.17;;;;;;;21.39;42.26;102318.72;5075868;28;20020;-67
2022/06/14 01:27:41;;;;;;;7.63;3.15;;;;;;;21.38;42.06;102312.59;5075115;28;20044;-67
2022/06/14 01:30:10;;;;;;;6.82;2.92;;;;;;;21.37;42.11;102316.19;5075945;28;20073;-68
2022/06/14 01:32:42;;;;;;;7.50;3.28;;;;;;;21.36;42.33;102313.66;5076035;28;20036;-67
2022/06/14 01:35:13;;;;;;;7.50;3.25;;;;;;;21.37;42.37;102313.53;5075325;28;20096;-67
2022/06/14 01:37:39;;;;;;;5.90;3.05;;;;;;;21.35;42.24;102299.56;5075805;28;20031;-67
2022/06/14 01:40:08;;;;;;;7.45;2.90;;;;;;;21.34;42.32;102308.44;5075827;28;20025;-67
2022/06/14 01:42:47;;;;;;;7.90;3.08;;;;;;;21.33;42.34;102301.47;5074870;28;20020;-67
2022/06/14 01:45:24;;;;;;;5.82;3.20;;;;;;;21.33;42.28;102306.78;5075393;28;20369;-67
2022/06/14 01:48:16;;;;;;;7.00;2.88;;;;;;;21.32;42.27;102298.94;5075510;28;20468;-67
2022/06/14 01:54:25;;;;;;;6.95;2.80;;;;;;;21.30;42.31;102307.00;5075508;28;20042;-67
2022/06/14 01:57:05;;;;;;;7.03;3.08;;;;;;;21.29;42.09;102305.28;5074732;28;20029;-67
2022/06/14 01:59:52;;;;;;;8.52;3.00;;;;;;;21.28;42.21;102298.28;5075293;28;20052;-67
2022/06/14 02:02:46;;;;;;;8.90;3.30;;;;;;;21.28;41.99;102294.81;5074515;28;20024;-67
2022/06/14 02:05:24;;;;;;;6.68;2.92;;;;;;;21.26;42.37;102292.25;5045525;28;20028;-67
2022/06/14 02:07:58;;;;;;;6.18;2.40;;;;;;;21.25;42.34;102290.56;5075399;28;20040;-67
2022/06/14 02:10:48;;;;;;;6.47;2.42;;;;;;;21.24;42.32;102286.22;5074348;28;20017;-67
2022/06/14 02:13:25;;;;;;;7.30;3.15;;;;;;;21.24;42.18;102283.56;5074290;28;20025;-67
2022/06/14 02:16:05;;;;;;;6.47;2.60;;;;;;;21.23;42.18;102279.22;5075118;28;20029;-67
2022/06/14 02:18:42;;;;;;;5.50;2.20;;;;;;;21.23;42.17;102281.03;5073337;28;20077;-67
2022/06/14 02:21:19;;;;;;;6.03;2.30;;;;;;;21.22;42.07;102282.84;5075149;28;20040;-67
2022/06/14 02:23:55;;;;;;;6.00;2.47;;;;;;;21.22;42.20;102277.53;5074281;28;20039;-67
2022/06/14 02:26:26;;;;;;;5.47;2.30;;;;;;;21.21;42.26;102267.88;5074235;28;20068;-67
2022/06/14 02:29:02;;;;;;;5.70;2.40;;;;;;;21.20;42.32;102274.13;5074989;28;20093;-67
2022/06/14 02:31:36;;;;;;;7.65;2.63;;;;;;;21.19;42.21;102267.16;5073900;28;20103;-67
2022/06/14 02:34:08;;;;;;;6.90;2.50;;;;;;;21.20;42.13;102268.84;5075046;28;20158;-67
2022/06/14 02:36:40;;;;;;;6.50;2.70;;;;;;;21.17;42.11;102272.56;5074522;28;20380;-67
2022/06/14 02:39:12;;;;;;;7.68;2.60;;;;;;;21.16;42.31;102276.16;5074126;28;20129;-67
2022/06/14 02:41:54;;;;;;;6.70;2.58;;;;;;;21.17;42.23;102266.41;5074687;28;20029;-67
2022/06/14 02:44:30;;;;;;;7.13;2.58;;;;;;;21.15;42.05;102263.84;5074324;28;20024;-67
2022/06/14 02:46:57;;;;;;;6.75;2.58;;;;;;;21.15;41.97;102260.38;5074283;28;20036;-67
2022/06/14 02:49:34;;;;;;;5.85;2.40;;;;;;;21.13;42.07;102260.47;5074364;28;20024;-67
2022/06/14 02:52:11;;;;;;;4.90;2.20;;;;;;;21.14;42.03;102259.53;5074201;28;20028;-67
2022/06/14 02:54:44;;;;;;;5.32;2.22;;;;;;;21.13;41.79;102262.28;5073646;28;20055;-67
2022/06/14 02:57:26;;;;;;;5.93;2.40;;;;;;;21.12;42.04;102266.72;5074115;28;20432;-67
2022/06/14 03:00:13;;;;;;;4.53;2.22;;;;;;;21.11;42.12;102259.75;5073677;28;20024;-67
2022/06/14 03:02:55;;;;;;;5.70;2.20;;;;;;;21.10;42.01;102252.75;5073895;28;20027;-67
2022/06/14 03:05:43;;;;;;;6.63;2.05;;;;;;;21.09;42.12;102252.84;5074084;28;20028;-68
2022/06/14 03:08:19;;;;;;;6.45;2.83;;;;;;;21.08;42.08;102254.66;5074080;28;20070;-68
2022/06/14 03:10:49;;;;;;;6.40;2.25;;;;;;;21.09;42.07;102255.50;5073920;28;20460;-67
2022/06/14 03:13:40;;;;;;;6.20;2.30;;;;;;;21.08;42.10;102261.75;5072904;28;20027;-68
2022/06/14 03:16:33;;;;;;;4.93;2.28;;;;;;;21.06;42.08;102259.25;5073726;28;20055;-68
2022/06/14 03:19:14;;;;;;;6.55;2.42;;;;;;;21.06;42.10;102264.53;5074034;28;20039;-68
2022/06/14 03:21:47;;;;;;;5.45;2.05;;;;;;;21.05;41.74;102262.84;5073152;28;20054;-68
2022/06/14 03:24:32;;;;;;;5.90;2.30;;;;;;;21.05;42.15;102265.50;5073585;28;20099;-68
2022/06/14 03:27:19;;;;;;;7.03;2.22;;;;;;;21.02;42.11;102269.19;5072799;28;20392;-68
2022/06/14 03:29:57;;;;;;;4.68;1.98;;;;;;;21.04;42.00;102270.91;5073655;28;20033;-68
2022/06/14 03:32:32;;;;;;;5.75;2.30;;;;;;;21.01;42.15;102264.88;5073334;28;20099;-68
2022/06/14 03:35:07;;;;;;;6.43;2.25;;;;;;;21.00;42.13;102268.47;5072682;28;20531;-68
2022/06/14 03:37:32;;;;;;;6.30;2.65;;;;;;;21.00;42.31;102276.41;5073389;28;20032;-68
2022/06/14 03:40:08;;;;;;;7.43;2.67;;;;;;;20.99;42.17;102266.75;5073381;28;20030;-68
2022/06/14 03:42:34;;;;;;;6.38;2.40;;;;;;;20.98;41.84;102262.44;5073041;28;20059;-67
2022/06/14 03:45:02;;;;;;;6.05;2.38;;;;;;;20.99;42.19;102265.94;5073035;28;20020;-67
2022/06/14 03:47:29;;;;;;;6.30;2.33;;;;;;;20.96;42.28;102261.69;5072959;28;20474;-67
2022/06/14 03:49:57;;;;;;;5.20;2.40;;;;;;;20.96;42.06;102261.69;5072726;28;20047;-67
2022/06/14 03:52:43;;;;;;;5.85;2.20;;;;;;;20.96;42.21;102258.19;5073077;28;20017;-67
2022/06/14 03:55:36;;;;;;;5.00;2.38;;;;;;;20.96;42.19;102263.50;5072173;28;20139;-67
2022/06/14 03:58:09;;;;;;;5.55;2.13;;;;;;;20.95;42.04;102265.31;5073074;28;20063;-67
2022/06/14 04:00:52;;;;;;;5.15;2.50;;;;;;;20.94;42.22;102263.59;5073499;28;20028;-66
2022/06/14 04:03:47;;;;;;;8.00;2.97;;;;;;;20.93;42.16;102267.19;5072051;28;20025;-67
2022/06/14 04:06:24;;;;;;;5.90;2.53;;;;;;;20.93;42.21;102266.34;5072681;28;20471;-67
2022/06/14 04:09:25;;;;;;;7.07;2.72;;;;;;;20.92;42.23;102270.81;5073142;28;20032;-67
2022/06/14 04:12:12;;;;;;;5.72;2.65;;;;;;;20.92;42.09;102277.91;5072928;28;20016;-67
2022/06/14 04:14:54;;;;;;;5.55;2.42;;;;;;;20.90;42.26;102267.41;5071918;28;20055;-67
2022/06/14 04:17:32;;;;;;;7.05;2.60;;;;;;;20.90;42.26;102278.00;5071654;28;20472;-67
2022/06/14 04:20:09;;;;;;;5.15;2.40;;;;;;;20.90;42.36;102283.31;5072860;28;20032;-67
2022/06/14 04:22:51;;;;;;;6.00;2.85;;;;;;;20.89;42.24;102276.34;5072662;28;20498;-67
2022/06/14 04:25:37;;;;;;;7.72;2.65;;;;;;;20.89;42.13;102280.78;5071799;28;20052;-67
2022/06/14 04:28:16;;;;;;;5.93;2.47;;;;;;;20.88;42.38;102279.94;5072368;28;20075;-67
2022/06/14 04:31:06;;;;;;;8.88;3.30;;;;;;;20.88;42.26;102277.28;5071901;28;20090;-67
2022/06/14 04:33:42;;;;;;;5.82;2.50;;;;;;;20.88;42.31;102279.09;5072477;28;20032;-67
2022/06/14 04:36:17;;;;;;;7.05;2.40;;;;;;;20.88;42.17;102289.69;5071455;28;20028;-67
2022/06/14 04:38:52;;;;;;;8.18;2.67;;;;;;;20.87;42.20;102282.69;5072020;28;20016;-67
2022/06/14 04:41:23;;;;;;;7.50;3.08;;;;;;;20.86;42.33;102278.38;5071775;28;20020;-67
2022/06/14 04:43:48;;;;;;;8.75;3.15;;;;;;;20.85;42.40;102285.44;5072576;28;20104;-67
2022/06/14 04:46:19;;;;;;;5.30;2.67;;;;;;;20.84;42.47;102284.59;5071354;28;20413;-67
2022/06/14 04:48:53;;;;;;;6.38;2.72;;;;;;;20.86;42.48;102286.31;5072382;28;20460;-67
2022/06/14 04:51:21;;;;;;;4.97;2.42;;;;;;;20.86;42.51;102278.38;5071459;28;20021;-67
2022/06/14 04:53:59;;;;;;;7.22;2.90;;;;;;;20.84;42.53;102284.59;5072422;28;20505;-67
2022/06/14 04:56:32;;;;;;;6.40;3.10;;;;;;;20.84;42.40;102283.78;5072268;28;20029;-67
2022/06/14 04:59:06;;;;;;;6.70;2.90;;;;;;;20.85;42.51;102280.16;5071605;28;20463;-67
2022/06/14 05:01:37;;;;;;;7.97;3.10;;;;;;;20.85;42.43;102280.16;5071961;28;20114;-67
2022/06/14 05:04:16;;;;;;;8.05;3.25;;;;;;;20.84;42.49;102289.91;5072481;28;20055;-67
2022/06/14 05:06:47;;;;;;;6.40;2.70;;;;;;;20.84;42.72;102287.25;5071505;28;20464;-67
2022/06/14 05:09:37;;;;;;;7.35;2.88;;;;;;;20.84;42.76;102284.59;5072149;28;20060;-67
2022/06/14 05:12:09;;;;;;;7.25;3.00;;;;;;;20.84;42.83;102287.25;5072354;28;20104;-67
2022/06/14 05:14:44;;;;;;;7.97;3.00;;;;;;;20.84;42.95;102281.13;5071975;28;20035;-67
2022/06/14 05:17:15;;;;;;;5.80;2.90;;;;;;;20.84;42.83;102295.22;5071830;28;20535;-67
2022/06/14 05:19:45;;;;;;;8.85;2.88;;;;;;;20.85;42.88;102293.38;5070270;28;20131;-67
2022/06/14 05:22:30;;;;;;;5.20;2.53;;;;;;;20.86;43.09;102296.91;5071111;28;20059;-67
2022/06/14 05:24:57;;;;;;;6.55;2.60;;;;;;;20.85;43.09;102293.38;5072254;28;20035;-67
2022/06/14 05:27:43;;;;;;;5.75;2.35;;;;;;;20.85;43.13;102290.75;5070667;28;20086;-67
2022/06/14 05:30:11;;;;;;;7.25;2.90;;;;;;;20.86;43.15;102283.66;5072115;28;20357;-67
2022/06/14 05:32:39;;;;;;;9.70;2.40;;;;;;;20.85;43.28;102290.75;5072149;28;20031;-67
2022/06/14 05:35:11;;;;;;;10.25;2.95;;;;;;;20.86;43.33;102288.97;5071203;28;20024;-67
2022/06/14 05:37:55;;;;;;;9.25;2.55;;;;;;;20.86;43.40;102287.16;5072042;28;20162;-67
2022/06/14 05:40:45;;;;;;;5.45;2.60;;;;;;;20.86;43.45;102289.81;5071154;28;20021;-67
2022/06/14 05:43:20;;;;;;;9.13;2.92;;;;;;;20.87;43.38;102290.63;5071644;28;20498;-66
2022/06/14 05:45:54;;;;;;;13.68;3.05;;;;;;;20.86;43.41;102287.16;5071952;28;20073;-67
2022/06/14 05:48:24;;;;;;;;;;;;;;;20.87;43.22;102293.28;5071217;28;20601;-70
2022/06/14 05:50:54;;;;;;;8.60;2.13;;;;;;;20.86;43.59;102300.41;5072147;28;19936;-69
2022/06/14 05:53:44;;;;;;;10.20;2.60;;;;;;;20.87;43.40;102291.50;5072952;28;20074;-67
2022/06/14 05:56:39;;;;;;;6.47;2.40;;;;;;;20.86;43.52;102289.81;5074640;28;20036;-71
2022/06/14 05:59:19;;;;;;;8.93;2.17;;;;;;;20.88;43.72;102300.28;5075603;28;20086;-71
2022/06/14 06:01:55;;;;;;;6.90;2.17;;;;;;;20.88;43.67;102300.28;5074628;28;20443;-71
2022/06/14 06:04:26;;;;;;;6.40;2.00;;;;;;;20.88;43.63;102302.94;5074754;28;20107;-71
2022/06/14 06:06:58;;;;;;;5.50;2.17;;;;;;;20.88;43.50;102295.81;5075145;28;20560;-73
2022/06/14 06:09:39;;;;;;;5.70;1.98;;;;;;;20.88;43.39;102308.25;5073900;28;20043;-72
2022/06/14 06:12:11;;;;;;;7.88;2.15;;;;;;;20.87;43.20;102304.75;5075344;28;20029;-70
2022/06/14 06:14:45;;;;;;;7.20;2.38;;;;;;;20.88;43.25;102305.59;5075351;28;20028;-71
2022/06/14 06:17:19;;;;;;;8.18;2.08;;;;;;;20.88;43.40;102309.06;5073932;28;20020;-68
2022/06/14 06:20:02;;;;;;;7.32;2.47;;;;;;;20.89;43.31;102312.59;5074999;28;20024;-68
2022/06/14 06:22:46;;;;;;;4.47;1.90;;;;;;;20.88;43.48;102308.25;5074819;28;20072;-68
2022/06/14 06:25:26;;;;;;;5.03;1.92;;;;;;;20.89;43.31;102310.78;5074680;28;20494;-68
2022/06/14 06:28:11;;;;;;;7.82;2.10;;;;;;;20.89;43.16;102305.47;5074573;28;20044;-67
2022/06/14 06:30:47;;;;;;;7.07;2.30;;;;;;;20.89;43.24;102304.66;5074267;28;20113;-68
2022/06/14 06:33:14;;;;;;;6.07;1.80;;;;;;;20.90;43.26;102312.47;5074497;28;20526;-68
2022/06/14 06:36:05;;;;;;;6.50;2.00;;;;;;;20.90;43.19;102314.28;5074710;28;20083;-68
2022/06/14 06:39:04;;;;;;;8.25;2.08;;;;;;;20.91;43.21;102313.31;5073946;28;20375;-68
2022/06/14 06:41:54;;;;;;;4.32;1.73;;;;;;;20.91;42.93;102318.63;5075794;28;20380;-67
2022/06/14 06:44:28;;;;;;;7.05;1.75;;;;;;;20.91;43.11;102319.47;5075367;28;20029;-68
2022/06/14 06:46:58;;;;;;;;;;;;;;;20.91;43.02;102315.97;5076469;28;20028;-68
2022/06/14 06:49:37;;;;;;;6.07;1.70;;;;;;;20.91;43.04;102316.81;5074751;28;19912;-69
2022/06/14 06:52:09;;;;;;;6.28;1.92;;;;;;;20.90;42.96;102315.09;5073865;28;20027;-68
2022/06/14 06:54:40;;;;;;;5.32;1.35;;;;;;;20.91;42.91;102316.81;5074515;28;20031;-68
2022/06/14 06:57:07;;;;;;;5.85;1.65;;;;;;;20.91;43.03;102311.50;5074290;28;20024;-68
2022/06/14 06:59:38;;;;;;;5.30;1.50;;;;;;;20.92;42.95;102313.22;5073420;28;20337;-68
2022/06/14 07:02:22;;;;;;;5.63;1.63;;;;;;;20.93;43.03;102316.72;5074526;28;20036;-68
2022/06/14 07:05:05;;;;;;;5.10;1.60;;;;;;;20.92;42.87;102312.34;5073094;28;20111;-68
2022/06/14 07:07:42;;;;;;;6.03;1.67;;;;;;;20.92;42.77;102315.88;5073685;28;20085;-68
2022/06/14 07:10:27;;;;;;;4.70;1.50;;;;;;;20.94;42.84;102313.13;5073931;28;20460;-67
2022/06/14 07:13:32;;;;;;;4.78;1.67;;;;;;;20.93;42.87;102309.59;5058840;28;20094;-68
2022/06/14 07:16:09;;;;;;;5.40;1.90;;;;;;;20.95;42.95;102317.44;4992720;28;20491;-67
2022/06/14 07:19:13;;;;;;;4.13;1.30;;;;;;;20.94;42.71;102318.41;5065519;28;20601;-67
2022/06/14 07:21:43;;;;;;;3.58;1.38;;;;;;;20.95;42.80;102315.66;5071223;28;20109;-68
2022/06/14 07:24:17;;;;;;;4.95;1.48;;;;;;;20.95;42.66;102309.50;5073398;28;20532;-68
2022/06/14 07:26:48;;;;;;;4.47;1.70;;;;;;;20.96;42.70;102308.53;5072917;28;20079;-68
2022/06/14 07:29:30;;;;;;;6.40;1.30;;;;;;;20.96;42.62;102312.03;5073633;28;20055;-68
2022/06/14 07:32:10;;;;;;;3.53;1.17;;;;;;;20.97;42.56;102302.31;5073868;28;20021;-68
2022/06/14 07:34:36;;;;;;;5.53;1.70;;;;;;;20.96;42.50;102314.69;5072907;28;20071;-68
2022/06/14 07:37:05;;;;;;;3.85;1.20;;;;;;;20.96;42.53;102312.03;5073772;28;20398;-68
2022/06/14 07:39:53;;;;;;;4.82;1.38;;;;;;;20.95;42.60;102310.34;5073315;28;20399;-68
2022/06/14 07:42:23;;;;;;;3.55;1.58;;;;;;;20.96;42.67;102306.72;5073362;28;20059;-69
2022/06/14 07:45:07;;;;;;;5.82;1.40;;;;;;;20.99;42.55;102303.03;5073447;28;20146;-68
2022/06/14 07:48:00;;;;;;;4.85;1.30;;;;;;;20.97;42.64;102308.44;5072479;28;20029;-68
2022/06/14 07:50:35;;;;;;;5.50;1.40;;;;;;;20.98;42.63;102299.53;5064961;28;20472;-68
2022/06/14 07:53:12;;;;;;;5.18;1.15;;;;;;;20.99;42.54;102301.22;5073196;28;20028;-68
2022/06/14 07:55:47;;;;;;;2.55;1.00;;;;;;;21.00;42.42;102308.22;5072736;28;20024;-68
2022/06/14 07:58:19;;;;;;;5.82;1.45;;;;;;;21.01;42.50;102303.75;5073093;28;20066;-68
2022/06/14 08:04:04;;;;;;;5.10;1.30;;;;;;;21.03;42.71;102304.53;5073031;28;20138;-68
2022/06/14 08:06:58;;;;;;;6.07;1.48;;;;;;;21.03;42.51;102304.53;5072944;28;20043;-68
2022/06/14 08:09:41;;;;;;;3.92;1.20;;;;;;;21.03;42.51;102307.16;5071719;28;20545;-68
2022/06/14 08:12:24;;;;;;;3.05;1.08;;;;;;;21.04;42.48;102300.06;5072808;28;20508;-68
2022/06/14 08:14:53;;;;;;;4.63;1.30;;;;;;;21.05;42.38;102296.47;5072930;28;20024;-68
2022/06/14 08:17:36;;;;;;;3.10;1.20;;;;;;;21.05;42.40;102302.59;5071157;28;20476;-67
2022/06/14 08:20:08;;;;;;;4.78;1.30;;;;;;;21.05;42.58;102296.47;5072991;28;20032;-68
2022/06/14 08:22:39;;;;;;;4.25;1.20;;;;;;;21.06;42.30;102292.84;5071733;28;20398;-67
2022/06/14 08:25:37;;;;;;;3.45;1.33;;;;;;;21.05;42.29;102284.03;5072722;28;20080;-68
2022/06/14 08:28:15;;;;;;;3.42;1.00;;;;;;;21.07;42.29;102290.06;5072414;28;20407;-68
2022/06/14 08:31:01;;;;;;;3.40;1.02;;;;;;;21.06;42.42;102283.09;5071780;28;20383;-67
2022/06/14 08:33:42;;;;;;;5.43;1.50;;;;;;;21.07;42.50;102282.13;5072589;28;20098;-67
2022/06/14 08:36:11;;;;;;;3.53;1.10;;;;;;;21.07;42.23;102281.28;5072231;28;20118;-67
2022/06/14 08:38:45;;;;;;;3.05;1.00;;;;;;;21.07;42.34;102278.63;5072621;28;20035;-68
2022/06/14 08:41:19;;;;;;;;;;;;;;;21.08;42.45;102280.31;5072463;28;20118;-68
2022/06/14 08:43:47;;;;;;;3.33;1.02;;;;;;;21.08;42.48;102283.81;5071942;28;20008;-68
2022/06/14 08:46:26;;;;;;;2.72;1.10;;;;;;;21.08;42.39;102291.78;5072346;28;20074;-68
2022/06/14 08:49:30;;;;;;;3.65;1.08;;;;;;;21.09;42.25;102279.38;5072442;28;20419;-68
2022/06/14 08:52:08;;;;;;;4.82;1.10;;;;;;;21.09;42.31;102282.84;5071600;28;20029;-68
2022/06/14 08:54:44;;;;;;;3.22;1.00;;;;;;;21.09;42.33;102277.53;5072664;28;20025;-67
2022/06/14 08:57:25;;;;;;;3.30;0.93;;;;;;;21.10;42.33;102278.41;5072319;28;20025;-67
2022/06/14 09:00:11;;;;;;;3.53;1.00;;;;;;;21.09;42.32;102272.25;5072342;28;20384;-68
2022/06/14 09:03:05;;;;;;;3.30;1.00;;;;;;;21.11;42.35;102280.09;5072589;28;20392;-68
2022/06/14 09:05:43;;;;;;;4.68;1.33;;;;;;;21.11;42.32;102277.44;5068754;28;20043;-68
2022/06/14 09:08:40;;;;;;;3.83;1.10;;;;;;;21.12;42.40;102279.16;5071953;28;20033;-68
2022/06/14 09:11:20;;;;;;;3.63;1.00;;;;;;;21.12;42.40;102276.50;5072313;28;20364;-67
2022/06/14 09:14:12;;;;;;;5.07;1.10;;;;;;;21.12;42.36;102276.50;5072281;28;20057;-68
2022/06/14 09:16:56;;;;;;;4.95;1.15;;;;;;;21.11;42.27;102269.50;5072205;28;20044;-68
2022/06/14 09:19:28;;;;;;;4.28;1.15;;;;;;;21.13;42.36;102275.56;5071320;28;20102;-68
2022/06/14 09:22:18;;;;;;;2.92;1.00;;;;;;;21.13;42.51;102275.56;5072309;28;20047;-67
2022/06/14 09:24:49;;;;;;;3.67;1.05;;;;;;;21.13;42.25;102272.91;5072022;28;20488;-68
2022/06/14 09:27:25;;;;;;;2.75;0.85;;;;;;;21.13;42.36;102272.91;5071960;28;20048;-68
2022/06/14 09:30:01;;;;;;;2.13;0.77;;;;;;;21.15;42.51;102281.56;5076015;28;20036;-68
2022/06/14 09:33:10;;;;;;;5.00;1.27;;;;;;;21.14;42.42;102266.63;5074632;28;20066;-67
2022/06/14 09:36:12;;;;;;;2.88;1.02;;;;;;;21.15;42.42;102269.16;5055095;28;20116;-67
2022/06/14 09:39:16;;;;;;;3.33;0.90;;;;;;;21.16;42.38;102267.38;5075932;28;20040;-67
2022/06/14 09:42:18;;;;;;;3.38;0.90;;;;;;;21.16;42.37;102259.44;5075399;28;20027;-68
2022/06/14 09:45:04;;;;;;;3.15;1.20;;;;;;;21.16;42.42;102262.06;5075498;28;20405;-67
2022/06/14 09:47:40;;;;;;;3.40;0.88;;;;;;;21.16;42.48;102252.31;5074534;28;20028;-68
2022/06/14 09:50:30;;;;;;;3.38;0.98;;;;;;;21.17;42.21;102239.88;5075631;28;20028;-68
2022/06/14 09:53:37;;;;;;;3.47;1.02;;;;;;;21.17;42.34;102237.25;5075600;28;20032;-68
2022/06/14 09:56:33;;;;;;;3.55;1.10;;;;;;;21.18;42.29;102238.94;5075410;28;20416;-70
2022/06/14 09:59:22;;;;;;;3.72;1.10;;;;;;;21.18;42.36;102236.28;5075351;28;20059;-67
2022/06/14 10:01:58;;;;;;;2.78;1.00;;;;;;;21.19;42.33;102230.03;5074841;28;20090;-68
2022/06/14 10:04:45;;;;;;;4.65;1.00;;;;;;;21.19;42.17;102230.88;5075172;28;20025;-68
2022/06/14 10:07:41;;;;;;;3.60;1.00;;;;;;;21.19;42.41;102233.53;5074961;28;20433;-68
2022/06/14 10:10:28;;;;;;;3.72;1.20;;;;;;;21.19;42.47;102232.69;5075260;28;20058;-68
2022/06/14 10:13:02;;;;;;;3.85;1.05;;;;;;;21.16;42.44;102224.97;5075087;28;20476;-69
2022/06/14 10:16:03;;;;;;;2.05;0.82;;;;;;;21.21;42.19;102230.78;5074207;28;20032;-68
2022/06/14 10:19:06;;;;;;;3.80;0.90;;;;;;;21.20;42.27;102224.63;5074775;28;20032;-68
2022/06/14 10:21:58;;;;;;;3.17;0.82;;;;;;;21.22;42.40;102226.31;5074866;28;20031;-68
2022/06/14 10:24:49;;;;;;;2.72;1.13;;;;;;;21.22;42.49;102234.25;5075059;28;20025;-71
2022/06/14 10:30:19;;;;;;;5.07;1.10;;;;;;;21.22;42.05;102211.25;5073832;28;20035;-69
2022/06/14 10:32:53;;;;;;;4.45;1.00;;;;;;;21.22;42.19;102210.41;5074891;28;20029;-69
2022/06/14 10:35:44;;;;;;;4.25;0.90;;;;;;;21.22;42.47;102208.63;5074454;28;20032;-69
2022/06/14 10:38:43;;;;;;;2.45;0.90;;;;;;;21.22;42.39;102200.66;5074144;28;20024;-68
2022/06/14 10:41:36;;;;;;;3.33;1.20;;;;;;;21.24;42.53;102200.53;5074330;28;20029;-69
2022/06/14 10:44:16;;;;;;;2.78;1.00;;;;;;;21.24;42.56;102201.38;5073756;28;20047;-69
2022/06/14 10:46:58;;;;;;;3.20;1.00;;;;;;;21.24;42.39;102192.56;5074773;28;20027;-68
2022/06/14 10:49:44;;;;;;;3.28;1.10;;;;;;;21.24;42.50;102189.91;5074322;28;20032;-67
2022/06/14 10:52:31;;;;;;;3.58;1.10;;;;;;;21.25;42.32;102186.31;5073740;28;20154;-68
2022/06/14 10:55:09;;;;;;;4.28;1.20;;;;;;;21.26;42.17;102185.38;5074658;28;20077;-69
2022/06/14 10:57:54;;;;;;;3.75;1.10;;;;;;;21.26;42.10;102177.41;5073449;28;20503;-69
2022/06/14 11:00:57;;;;;;;3.13;1.10;;;;;;;21.26;42.14;102180.06;5074065;28;20135;-69
2022/06/14 11:03:44;;;;;;;3.40;1.10;;;;;;;21.26;42.19;102172.94;5074052;28;20439;-68
2022/06/14 11:07:01;;;;;;;4.97;1.58;;;;;;;21.27;42.18;102173.78;5073643;28;20402;-68
2022/06/14 11:09:49;;;;;;;3.13;0.90;;;;;;;21.28;42.05;102172.84;5039877;28;20037;-68
2022/06/14 11:12:51;;;;;;;3.65;1.10;;;;;;;21.28;42.30;102175.47;5051143;28;20044;-69
2022/06/14 11:15:35;;;;;;;5.75;1.17;;;;;;;21.28;42.16;102170.19;5073722;28;20036;-70
2022/06/14 11:18:28;;;;;;;4.72;1.38;;;;;;;21.29;42.18;102171.88;5073409;28;20086;-69
2022/06/14 11:21:23;;;;;;;3.30;1.00;;;;;;;21.30;42.18;102165.59;5074082;28;20037;-69
2022/06/14 11:24:25;;;;;;;4.70;1.60;;;;;;;21.31;42.30;102168.13;5062679;28;20127;-70
2022/06/14 11:27:17;;;;;;;3.20;1.10;;;;;;;21.31;42.34;102160.19;5072829;28;20045;-69
2022/06/14 11:30:02;;;;;;;4.50;1.38;;;;;;;21.32;42.53;102151.28;5073772;28;20115;-70
2022/06/14 11:32:31;;;;;;;;;;;;;;;21.32;42.27;102153.94;5073223;28;20107;-70
2022/06/14 11:35:07;;;;;;;5.43;1.10;;;;;;;21.33;42.21;102145.03;5073512;28;20390;-69
2022/06/14 11:37:54;;;;;;;3.35;1.00;;;;;;;21.34;42.40;102151.16;5073382;28;20032;-70
2022/06/14 11:40:24;;;;;;;4.00;1.10;;;;;;;21.35;42.34;102142.25;5072397;28;20482;-70
2022/06/14 11:43:01;;;;;;;4.00;0.80;;;;;;;21.37;42.36;102145.63;5073420;28;20029;-70
2022/06/14 11:45:48;;;;;;;3.47;1.15;;;;;;;21.37;42.32;102140.34;5073156;28;20040;-70
2022/06/14 11:48:28;;;;;;;6.05;1.10;;;;;;;21.37;42.40;102130.56;5072305;28;20696;-70
2022/06/14 11:51:07;;;;;;;6.28;1.13;;;;;;;21.38;42.45;102134.09;5073388;28;20438;-70
2022/06/14 11:54:00;;;;;;;6.10;1.40;;;;;;;21.38;42.26;102126.97;5072400;28;20024;-70
2022/06/14 11:56:48;;;;;;;5.45;1.20;;;;;;;21.40;42.13;102129.50;5072909;28;20054;-72
2022/06/14 11:59:53;;;;;;;4.60;0.90;;;;;;;21.41;42.11;102130.34;5073445;28;20029;-71
2022/06/14 12:02:54;;;;;;;5.10;1.17;;;;;;;21.41;42.18;102130.34;5073922;28;20032;-70
2022/06/14 12:05:27;;;;;;;5.15;1.45;;;;;;;21.41;42.25;102130.34;5072743;28;20028;-73
2022/06/14 12:08:21;;;;;;;3.35;0.93;;;;;;;21.41;42.45;102127.69;5072717;28;20025;-71
2022/06/14 12:11:27;;;;;;;2.47;0.80;;;;;;;21.41;42.38;102128.53;5072863;28;20036;-71
2022/06/14 12:14:01;;;;;;;6.63;1.35;;;;;;;21.42;42.55;102119.63;4991590;28;20038;-71
2022/06/14 12:16:39;;;;;;;2.70;1.10;;;;;;;21.43;42.37;102125.75;4990463;28;20030;-72
2022/06/14 12:19:12;;;;;;;5.00;1.40;;;;;;;21.45;42.52;102123.84;5042279;28;20040;-71
2022/06/14 12:22:26;;;;;;;5.82;1.08;;;;;;;21.45;42.43;102123.84;5072031;28;20533;-71
2022/06/14 12:27:53;;;;;;;3.90;1.30;;;;;;;21.45;42.45;102119.38;5073579;28;20403;-71
2022/06/14 12:30:19;;;;;;;4.57;1.45;;;;;;;21.47;42.42;102113.97;5071671;28;20017;-71
2022/06/14 12:33:01;;;;;;;2.47;0.80;;;;;;;21.47;42.64;102112.16;5072578;28;20543;-71
2022/06/14 12:35:34;;;;;;;3.20;1.00;;;;;;;21.48;42.63;102110.38;5071999;28;20024;-70
2022/06/14 12:38:11;;;;;;;3.53;1.00;;;;;;;21.50;42.30;102105.81;5072770;28;20029;-68